Data for 06/03/2009

Time Sea-Level Adjusted Pressure Absolute Pressure Temperature Relative Humidity Dew Point   
(mb) (inHg) (mb) (inHg) (C) (F) (%) (C) (F)
00:05 1024 30.24 853 25.19 5.4 41.7 87 3.4 38.2
00:10 1024 30.24 853 25.19 5.4 41.7 87 3.4 38.2
00:15 1024 30.24 853 25.19 5.4 41.7 87 3.3 38
00:20 1024 30.24 853 25.19 5.4 41.7 86 3.2 37.8
00:25 1024 30.24 853 25.19 5.4 41.7 86 3.3 37.9
00:30 1024 30.24 853 25.19 5.4 41.7 86 3.3 37.9
00:35 1024 30.24 853 25.19 5.4 41.8 86 3.2 37.8
00:40 1024 30.24 853 25.19 5.5 41.9 85 3.2 37.8
00:45 1024 30.24 853 25.19 5.6 42 84 3.1 37.6
00:50 1024 30.24 853 25.19 5.6 42 85 3.3 37.9
00:55 1024 30.24 853 25.19 5.5 41.9 85 3.2 37.7
01:00 1024 30.24 853 25.19 5.5 41.9 85 3.2 37.8
01:05 1024 30.24 853 25.19 5.6 42 84 3.1 37.5
01:10 1024 30.24 853 25.19 5.6 42.1 85 3.3 37.9
01:15 1024 30.24 853 25.19 5.7 42.2 83 3.1 37.5
01:20 1024 30.24 853 25.19 5.7 42.2 84 3.2 37.7
01:25 1024 30.24 853 25.19 5.7 42.2 83 3.1 37.5
01:30 1024 30.24 853 25.19 5.7 42.2 85 3.3 38
01:35 1024 30.24 853 25.19 5.7 42.3 84 3.3 37.9
01:40 1024 30.24 853 25.19 5.6 42.1 85 3.3 37.9
01:45 1024 30.24 853 25.19 5.6 42.1 85 3.3 37.9
01:50 1024 30.24 853 25.19 5.6 42.1 84 3.2 37.7
01:55 1024 30.24 853 25.19 5.6 42.2 84 3.2 37.8
02:00 1024 30.24 853 25.19 5.6 42.1 85 3.3 37.9
02:05 1024 30.24 853 25.19 5.7 42.2 83 3 37.4
02:10 1023 30.21 853 25.19 5.8 42.4 83 3.1 37.6
02:15 1023 30.21 853 25.19 5.8 42.4 83 3.2 37.8
02:20 1024 30.24 853 25.19 5.8 42.4 84 3.3 37.9
02:25 1024 30.24 853 25.19 5.8 42.4 83 3.1 37.6
02:30 1023 30.21 853 25.19 5.8 42.4 82 3 37.4
02:35 1023 30.21 853 25.19 5.9 42.5 83 3.2 37.7
02:40 1023 30.21 853 25.19 5.9 42.6 82 3.1 37.6
02:45 1023 30.21 853 25.19 5.9 42.6 82 3 37.5
02:50 1023 30.21 853 25.19 5.9 42.7 83 3.2 37.7
02:55 1024 30.24 853 25.19 5.9 42.6 83 3.2 37.8
03:00 1023 30.21 853 25.19 5.9 42.6 83 3.2 37.8
03:05 1023 30.21 853 25.19 5.9 42.7 83 3.3 38
03:10 1024 30.24 853 25.19 5.9 42.6 84 3.4 38.1
03:15 1023 30.21 853 25.19 5.9 42.5 83 3.3 37.9
03:20 1023 30.21 853 25.19 5.9 42.5 84 3.3 37.9
03:25 1023 30.21 853 25.19 5.9 42.6 84 3.3 38
03:30 1023 30.21 853 25.19 5.9 42.7 84 3.5 38.2
03:35 1023 30.21 853 25.19 5.9 42.6 85 3.5 38.4
03:40 1023 30.21 853 25.19 5.8 42.4 86 3.6 38.5
03:45 1023 30.21 853 25.19 5.8 42.4 86 3.6 38.5
03:50 1023 30.21 853 25.19 5.8 42.4 85 3.5 38.4
03:55 1023 30.21 853 25.19 5.8 42.4 86 3.6 38.4
04:00 1023 30.21 853 25.19 5.7 42.3 87 3.7 38.6
04:05 1023 30.21 853 25.19 5.7 42.3 86 3.6 38.5
04:10 1023 30.21 853 25.19 5.7 42.3 87 3.7 38.6
04:15 1023 30.21 852 25.16 5.7 42.3 86 3.6 38.5
04:20 1023 30.21 852 25.16 5.7 42.3 86 3.5 38.4
04:25 1023 30.21 852 25.16 5.8 42.4 85 3.5 38.2
04:30 1023 30.21 852 25.16 5.8 42.5 84 3.4 38.1
04:35 1023 30.21 852 25.16 5.8 42.4 85 3.4 38.2
04:40 1023 30.21 852 25.16 5.8 42.4 85 3.5 38.3
04:45 1023 30.21 852 25.16 5.8 42.4 86 3.6 38.4
04:50 1023 30.21 852 25.16 5.9 42.5 85 3.6 38.5
04:55 1023 30.21 852 25.16 5.9 42.7 85 3.6 38.5
05:00 1023 30.21 852 25.16 5.9 42.7 86 3.8 38.9
05:05 1023 30.21 852 25.16 5.9 42.5 87 3.9 38.9
05:10 1023 30.21 852 25.16 5.8 42.4 89 4.1 39.3
05:15 1023 30.21 852 25.16 5.7 42.3 89 4 39.3
05:20 1023 30.21 852 25.16 5.6 42.1 90 4.2 39.6
05:25 1023 30.21 852 25.16 5.5 42 91 4.2 39.5
05:30 1023 30.21 852 25.16 5.4 41.8 91 4 39.2
05:35 1023 30.21 852 25.16 5.4 41.8 91 4.2 39.5
05:40 1023 30.21 852 25.16 5.4 41.7 92 4.2 39.5
05:45 1023 30.21 853 25.19 5.4 41.7 92 4.2 39.5
05:50 1023 30.21 853 25.19 5.4 41.7 91 4.1 39.3
05:55 1023 30.21 853 25.19 5.4 41.8 92 4.2 39.5
06:00 1023 30.21 853 25.19 5.4 41.7 92 4.2 39.5
06:05 1023 30.21 853 25.19 5.4 41.7 92 4.2 39.5
06:10 1023 30.21 853 25.19 5.5 41.8 92 4.2 39.5
06:15 1023 30.21 853 25.19 5.6 42.1 90 4.1 39.4
06:20 1023 30.21 852 25.16 5.7 42.2 90 4.1 39.4
06:25 1023 30.21 852 25.16 5.7 42.3 90 4.1 39.5
06:30 1023 30.21 852 25.16 5.8 42.4 89 4.1 39.4
06:35 1023 30.21 852 25.16 5.9 42.6 88 4 39.2
06:40 1023 30.21 852 25.16 6 42.7 88 4.2 39.5
06:45 1023 30.21 853 25.19 6 42.8 88 4.1 39.4
06:50 1023 30.21 853 25.19 6.1 43 87 4.1 39.4
06:55 1023 30.21 853 25.19 6.2 43.1 88 4.3 39.7
07:00 1024 30.24 853 25.19 6.2 43.1 87 4.2 39.6
07:05 1024 30.24 853 25.19 6.2 43.2 87 4.2 39.5
07:10 1024 30.24 853 25.19 6.3 43.3 87 4.3 39.7
07:15 1024 30.24 853 25.19 6.3 43.3 87 4.2 39.6
07:20 1024 30.24 853 25.19 6.3 43.4 87 4.4 39.9
07:25 1024 30.24 853 25.19 6.4 43.6 87 4.4 40
07:30 1024 30.24 853 25.19 6.5 43.7 86 4.4 40
07:35 1024 30.24 853 25.19 6.5 43.7 88 4.6 40.4
07:40 1024 30.24 853 25.19 6.6 43.9 87 4.6 40.3
07:45 1024 30.24 853 25.19 6.6 43.9 87 4.6 40.2
07:50 1024 30.24 853 25.19 6.7 44.1 87 4.7 40.4
07:55 1024 30.24 853 25.19 6.7 44 86 4.6 40.2
08:00 1024 30.24 853 25.19 6.7 44 87 4.6 40.3
08:05 1024 30.24 853 25.19 6.8 44.3 86 4.6 40.3
08:10 1024 30.24 853 25.19 7 44.7 85 4.7 40.4
08:15 1024 30.24 853 25.19 7 44.5 84 4.4 40
08:20 1024 30.24 853 25.19 7 44.6 84 4.5 40.1
08:25 1024 30.24 853 25.19 7.1 44.8 83 4.5 40.1
08:30 1024 30.24 853 25.19 7 44.6 83 4.4 39.9
08:35 1024 30.24 853 25.19 7 44.7 85 4.6 40.3
08:40 1024 30.24 853 25.19 7.1 44.8 83 4.4 39.9
08:45 1024 30.24 853 25.19 7.1 44.8 83 4.3 39.8
08:50 1024 30.24 853 25.19 7.3 45.2 82 4.5 40.1
08:55 1024 30.24 853 25.19 7.6 45.7 80 4.3 39.8
09:00 1024 30.24 853 25.19 7.5 45.4 80 4.3 39.7
09:05 1024 30.24 853 25.19 7.6 45.6 78 4.1 39.3
09:10 1024 30.24 853 25.19 7.6 45.8 79 4.2 39.5
09:15 1024 30.24 853 25.19 7.8 46.1 78 4.3 39.7
09:20 1024 30.24 853 25.19 7.9 46.2 80 4.6 40.4
09:25 1024 30.24 854 25.22 8 46.5 79 4.6 40.2
09:30 1024 30.24 854 25.22 8.2 46.7 77 4.3 39.8
09:35 1024 30.24 854 25.22 8.1 46.6 77 4.3 39.8
09:40 1024 30.24 854 25.22 8 46.3 78 4.3 39.7
09:45 1024 30.24 854 25.22 8.2 46.7 77 4.4 39.9
09:50 1024 30.24 854 25.22 8.3 47 77 4.5 40.1
09:55 1024 30.24 854 25.22 8.4 47.2 77 4.7 40.4
10:00 1024 30.24 854 25.22 8.5 47.2 75 4.2 39.6
10:05 1024 30.24 854 25.22 8.7 47.6 75 4.5 40
10:10 1024 30.24 854 25.22 8.9 48.1 74 4.6 40.3
10:15 1024 30.24 853 25.19 9.1 48.5 72 4.4 40
10:20 1024 30.24 853 25.19 9 48.2 72 4.2 39.5
10:25 1024 30.24 853 25.19 9.1 48.4 72 4.3 39.7
10:30 1024 30.24 853 25.19 9.4 48.8 69 4 39.3
10:35 1024 30.24 854 25.22 9.3 48.8 70 4.1 39.4
10:40 1024 30.24 854 25.22 9.4 48.8 70 4.1 39.4
10:45 1024 30.24 854 25.22 9.6 49.3 71 4.6 40.3
10:50 1024 30.24 854 25.22 9.5 49.1 71 4.5 40.2
10:55 1024 30.24 854 25.22 9.4 48.9 72 4.6 40.3
11:00 1024 30.24 854 25.22 9.4 49 73 4.8 40.6
11:05 1024 30.24 854 25.22 9.3 48.7 74 4.9 40.9
11:10 1024 30.24 854 25.22 9.5 49 74 5 41
11:15 1025 30.27 854 25.22 9.4 49 72 4.6 40.3
11:20 1025 30.27 854 25.22 9.7 49.5 71 4.8 40.6
11:25 1024 30.24 854 25.22 9.7 49.4 70 4.6 40.2
11:30 1024 30.24 854 25.22 9.5 49 73 5 41
11:35 1024 30.24 854 25.22 9.3 48.8 74 4.9 40.8
11:40 1024 30.24 854 25.22 10 49.9 69 4.7 40.4
11:45 1024 30.24 854 25.22 10.6 51.1 66 4.5 40.1
11:50 1024 30.24 853 25.19 11.1 52 66 5 41
11:55 1024 30.24 853 25.19 11.5 52.8 63 4.7 40.4
12:00 1024 30.24 853 25.19 11.5 52.6 61 4.3 39.8
12:05 1024 30.24 853 25.19 11.8 53.3 62 4.8 40.6
12:10 1024 30.24 853 25.19 11.7 53 62 4.7 40.4
12:15 1024 30.24 853 25.19 11.8 53.3 62 4.9 40.8
12:20 1024 30.24 853 25.19 12.2 53.9 59 4.5 40.1
12:25 1024 30.24 853 25.19 12.4 54.3 59 4.6 40.2
12:30 1024 30.24 853 25.19 11.9 53.4 61 4.7 40.5
12:35 1024 30.24 853 25.19 12.6 54.7 56 4.2 39.6
12:40 1024 30.24 853 25.19 12.9 55.2 58 5 41
12:45 1024 30.24 853 25.19 12.4 54.3 60 4.9 40.8
12:50 1024 30.24 853 25.19 12.3 54.1 59 4.6 40.4
12:55 1024 30.24 853 25.19 12.3 54.2 60 4.9 40.7
13:00 1024 30.24 853 25.19 12.3 54.2 60 5 40.9
13:05 1024 30.24 853 25.19 12.1 53.8 61 5 41
13:10 1024 30.24 853 25.19 12.2 54 60 4.7 40.4
13:15 1024 30.24 853 25.19 12.4 54.2 61 5.1 41.1
13:20 1024 30.24 853 25.19 12.6 54.7 61 5.3 41.5
13:25 1024 30.24 853 25.19 12.4 54.4 60 4.9 40.7
13:30 1024 30.24 853 25.19 12.9 55.2 58 4.9 40.7
13:35 1024 30.24 853 25.19 13.2 55.8 58 5.1 41.2
13:40 1024 30.24 853 25.19 13.3 55.9 57 5.1 41.2
13:45 1024 30.24 853 25.19 12.9 55.3 59 5.3 41.5
13:50 1024 30.24 853 25.19 12.9 55.2 58 5 41
13:55 1024 30.24 853 25.19 13.8 56.8 56 5.2 41.3
14:00 1024 30.24 853 25.19 14.1 57.4 56 5.6 42
14:05 1024 30.24 853 25.19 14 57.2 56 5.3 41.5
14:10 1023 30.21 853 25.19 14.1 57.4 55 5.2 41.4
14:15 1023 30.21 853 25.19 14.6 58.2 53 5.1 41.2
14:20 1023 30.21 853 25.19 14.3 57.8 59 6.5 43.7
14:25 1023 30.21 853 25.19 13.9 56.9 57 5.6 42.1
14:30 1023 30.21 853 25.19 14.4 58 52 4.7 40.4
14:35 1023 30.21 853 25.19 16.1 60.9 49 5.4 41.7
14:40 1023 30.21 853 25.19 15.1 59.1 53 5.6 42.1
14:45 1023 30.21 853 25.19 15 58.9 51 5.1 41.1
14:50 1023 30.21 852 25.16 15.3 59.6 53 5.9 42.6
14:55 1023 30.21 852 25.16 15.9 60.5 52 6.1 42.9
15:00 1023 30.21 852 25.16 15.5 59.9 52 5.8 42.5
15:05 1023 30.21 852 25.16 15.3 59.5 52 5.7 42.2
15:10 1023 30.21 852 25.16 15.2 59.4 54 6 42.9
15:15 1023 30.21 852 25.16 15.6 60.1 53 6.2 43.1
15:20 1023 30.21 852 25.16 15.3 59.5 55 6.3 43.4
15:25 1023 30.21 852 25.16 14.9 58.8 55 6.1 43
15:30 1023 30.21 852 25.16 14.7 58.5 54 5.5 41.9
15:35 1023 30.21 852 25.16 15 59 55 6.3 43.3
15:40 1023 30.21 852 25.16 14.7 58.4 58 6.5 43.7
15:45 1023 30.21 852 25.16 14.7 58.5 54 5.6 42.1
15:50 1023 30.21 852 25.16 14.8 58.7 56 6.2 43.2
15:55 1023 30.21 852 25.16 14.7 58.4 57 6.4 43.4
16:00 1023 30.21 852 25.16 14.7 58.5 57 6.3 43.4
16:05 1023 30.21 852 25.16 14.9 58.8 55 5.9 42.7
16:10 1023 30.21 852 25.16 15.5 59.8 53 5.9 42.6
16:15 1023 30.21 852 25.16 15.7 60.2 54 6.4 43.6
16:20 1023 30.21 852 25.16 16.2 61.2 51 6.1 42.9
16:25 1023 30.21 852 25.16 15.7 60.2 53 6.2 43.2
16:30 1023 30.21 852 25.16 16 60.7 52 6.2 43.2
16:35 1023 30.21 852 25.16 16.1 61 54 6.8 44.3
16:40 1023 30.21 852 25.16 15.5 59.9 54 6.4 43.6
16:45 1023 30.21 852 25.16 15.9 60.7 54 6.8 44.2
16:50 1023 30.21 852 25.16 16.1 61 52 6.3 43.4
16:55 1023 30.21 852 25.16 16.2 61.1 51 6.2 43.1
17:00 1023 30.21 852 25.16 16.5 61.6 51 6.5 43.8
17:05 1022 30.18 852 25.16 16.6 61.9 51 6.5 43.7
17:10 1022 30.18 852 25.16 15.9 60.6 54 6.6 44
17:15 1022 30.18 852 25.16 16.2 61.1 53 6.6 43.9
17:20 1022 30.18 852 25.16 16.2 61.1 50 5.9 42.6
17:25 1022 30.18 852 25.16 15.9 60.6 52 6.1 43
17:30 1022 30.18 852 25.16 16.4 61.4 51 6.4 43.5
17:35 1022 30.18 852 25.16 16.2 61.1 54 7 44.6
17:40 1022 30.18 852 25.16 16.2 61.2 53 6.7 44
17:45 1022 30.18 852 25.16 16.5 61.6 52 6.8 44.2
17:50 1022 30.18 851 25.13 16.4 61.6 53 7 44.7
17:55 1022 30.18 851 25.13 16.4 61.5 53 6.8 44.3
18:00 1022 30.18 851 25.13 16.4 61.4 53 6.8 44.3
18:05 1022 30.18 851 25.13 16.3 61.3 54 7.2 44.9
18:10 1022 30.18 851 25.13 16.1 61.1 55 7.1 44.8
18:15 1022 30.18 851 25.13 16.2 61.1 54 7 44.6
18:20 1022 30.18 851 25.13 16.2 61.1 54 7 44.6
18:25 1022 30.18 851 25.13 16.1 60.9 55 7.1 44.8
18:30 1022 30.18 851 25.13 16.1 61 54 7 44.5
18:35 1022 30.18 851 25.13 16.2 61.1 56 7.4 45.3
18:40 1022 30.18 851 25.13 15.8 60.4 56 7 44.6
18:45 1022 30.18 851 25.13 15.6 60 57 7.1 44.8
18:50 1022 30.18 851 25.13 15.5 59.9 57 7.1 44.8
18:55 1022 30.18 851 25.13 15.5 59.9 57 7.2 44.9
19:00 1022 30.18 851 25.13 15.3 59.5 58 7.1 44.7
19:05 1022 30.18 851 25.13 15.4 59.8 57 7 44.6
19:10 1022 30.18 851 25.13 15.3 59.6 58 7.1 44.7
19:15 1022 30.18 851 25.13 15.3 59.5 57 7 44.5
19:20 1022 30.18 851 25.13 15.1 59.2 59 7.2 45
19:25 1022 30.18 851 25.13 15 59 59 7.1 44.7
19:30 1022 30.18 851 25.13 14.8 58.6 60 7.2 44.9
19:35 1022 30.18 851 25.13 14.7 58.5 60 7.1 44.8
19:40 1022 30.18 851 25.13 14.6 58.2 60 7 44.6
19:45 1022 30.18 851 25.13 14.5 58.1 61 7 44.7
19:50 1022 30.18 851 25.13 14.5 58 61 7.1 44.8
19:55 1022 30.18 851 25.13 14.3 57.8 61 6.9 44.5
20:00 1022 30.18 851 25.13 14.2 57.6 61 7 44.5
20:05 1022 30.18 851 25.13 14.2 57.6 61 6.9 44.5
20:10 1022 30.18 851 25.13 14.1 57.4 61 6.9 44.4
20:15 1022 30.18 851 25.13 14 57.3 62 6.9 44.4
20:20 1022 30.18 851 25.13 13.9 57 62 6.8 44.3
20:25 1022 30.18 851 25.13 13.8 56.8 63 6.8 44.3
20:30 1022 30.18 851 25.13 13.6 56.6 63 6.8 44.3
20:35 1022 30.18 851 25.13 13.5 56.2 64 6.8 44.2
20:40 1022 30.18 851 25.13 13.3 55.9 65 6.9 44.3
20:45 1022 30.18 851 25.13 13.1 55.5 65 6.7 44
20:50 1022 30.18 851 25.13 12.9 55.2 66 6.7 44.1
20:55 1022 30.18 851 25.13 12.7 54.8 66 6.6 43.9
21:00 1022 30.18 851 25.13 12.5 54.6 67 6.5 43.8
21:05 1022 30.18 851 25.13 12.4 54.4 66 6.4 43.5
21:10 1022 30.18 851 25.13 12.3 54.2 67 6.4 43.4
21:15 1022 30.18 851 25.13 12.2 53.9 67 6.3 43.3
21:20 1022 30.18 851 25.13 12 53.7 68 6.3 43.3
21:25 1022 30.18 851 25.13 12 53.5 68 6.2 43.2
21:30 1022 30.18 851 25.13 11.9 53.3 68 6.2 43.2
21:35 1022 30.18 851 25.13 11.8 53.2 69 6.2 43.2
21:40 1022 30.18 851 25.13 11.8 53.2 68 6.2 43.1
21:45 1022 30.18 852 25.16 11.7 53.1 68 6.1 43.1
21:50 1022 30.18 852 25.16 11.7 53 69 6.2 43.1
21:55 1022 30.18 852 25.16 11.6 52.8 70 6.2 43.2
22:00 1023 30.21 852 25.16 11.4 52.5 70 6.2 43.2
22:05 1023 30.21 852 25.16 11.3 52.3 71 6.2 43.1
22:10 1023 30.21 852 25.16 11.2 52.2 71 6.1 43
22:15 1023 30.21 852 25.16 11.1 52.1 72 6.3 43.3
22:20 1023 30.21 852 25.16 11 51.7 72 6.2 43.1
22:25 1023 30.21 852 25.16 11 51.7 72 6.1 42.9
22:30 1023 30.21 852 25.16 11 51.7 72 6 42.9
22:35 1023 30.21 852 25.16 10.9 51.6 72 6.1 43
22:40 1023 30.21 852 25.16 10.8 51.5 72 6 42.8
22:45 1023 30.21 852 25.16 10.8 51.5 72 6 42.9
22:50 1023 30.21 852 25.16 10.8 51.4 72 6 42.7
22:55 1023 30.21 852 25.16 10.7 51.3 72 6 42.7
23:00 1023 30.21 852 25.16 10.8 51.4 72 6 42.7
23:05 1023 30.21 852 25.16 10.8 51.4 72 5.9 42.7
23:10 1023 30.21 852 25.16 10.8 51.4 72 6 42.8
23:15 1023 30.21 852 25.16 10.7 51.2 72 5.9 42.6
23:20 1023 30.21 852 25.16 10.7 51.2 72 5.9 42.6
23:25 1023 30.21 852 25.16 10.6 51.1 72 5.8 42.4
23:30 1023 30.21 852 25.16 10.5 50.8 72 5.7 42.3
23:35 1022 30.18 852 25.16 10.3 50.6 72 5.5 42
23:40 1022 30.18 852 25.16 10.3 50.5 72 5.5 42
23:45 1022 30.18 852 25.16 10.2 50.4 72 5.5 41.9
23:50 1022 30.18 852 25.16 10.2 50.4 72 5.4 41.7
23:55 1022 30.18 852 25.16 10.3 50.5 72 5.5 41.9
24:00 1022 30.18 852 25.16 10.1 50.1 74 5.6 42.1